sensor_id;sensor_type;location;lat;lon;timestamp;temperature;humidity
44982;DHT22;30716;41.740;-70.400;2023-04-03T00:01:43;24.50;36.20
44982;DHT22;30716;41.740;-70.400;2023-04-03T00:04:09;24.50;36.10
44982;DHT22;30716;41.740;-70.400;2023-04-03T00:06:36;24.50;36.50
44982;DHT22;30716;41.740;-70.400;2023-04-03T00:09:02;24.50;36.30
44982;DHT22;30716;41.740;-70.400;2023-04-03T00:11:28;24.60;36.30
44982;DHT22;30716;41.740;-70.400;2023-04-03T00:13:55;24.60;36.40
44982;DHT22;30716;41.740;-70.400;2023-04-03T00:16:21;24.60;36.30
44982;DHT22;30716;41.740;-70.400;2023-04-03T00:18:47;24.60;36.50
44982;DHT22;30716;41.740;-70.400;2023-04-03T00:21:14;24.60;36.40
44982;DHT22;30716;41.740;-70.400;2023-04-03T00:23:41;24.60;36.40
44982;DHT22;30716;41.740;-70.400;2023-04-03T00:26:07;24.70;36.40
44982;DHT22;30716;41.740;-70.400;2023-04-03T00:28:34;24.60;36.20
44982;DHT22;30716;41.740;-70.400;2023-04-03T00:31:00;24.70;36.20
44982;DHT22;30716;41.740;-70.400;2023-04-03T00:33:27;24.60;36.20
44982;DHT22;30716;41.740;-70.400;2023-04-03T00:35:53;24.70;36.30
44982;DHT22;30716;41.740;-70.400;2023-04-03T00:38:19;24.70;36.40
44982;DHT22;30716;41.740;-70.400;2023-04-03T00:40:48;24.70;36.30
44982;DHT22;30716;41.740;-70.400;2023-04-03T00:43:21;24.70;36.20
44982;DHT22;30716;41.740;-70.400;2023-04-03T00:45:50;24.70;36.20
44982;DHT22;30716;41.740;-70.400;2023-04-03T00:48:29;24.70;36.30
44982;DHT22;30716;41.740;-70.400;2023-04-03T00:50:58;24.70;36.20
44982;DHT22;30716;41.740;-70.400;2023-04-03T00:54:05;24.70;36.20
44982;DHT22;30716;41.740;-70.400;2023-04-03T00:56:27;24.70;36.30
44982;DHT22;30716;41.740;-70.400;2023-04-03T00:59:01;24.70;36.30
44982;DHT22;30716;41.740;-70.400;2023-04-03T01:01:30;24.70;36.30
44982;DHT22;30716;41.740;-70.400;2023-04-03T01:04:05;24.70;36.20
44982;DHT22;30716;41.740;-70.400;2023-04-03T01:06:36;24.70;36.20
44982;DHT22;30716;41.740;-70.400;2023-04-03T01:09:03;24.80;36.30
44982;DHT22;30716;41.740;-70.400;2023-04-03T01:11:30;24.80;36.30
44982;DHT22;30716;41.740;-70.400;2023-04-03T01:13:56;24.70;36.20
44982;DHT22;30716;41.740;-70.400;2023-04-03T01:16:23;24.70;36.20
44982;DHT22;30716;41.740;-70.400;2023-04-03T01:18:49;24.80;36.30
44982;DHT22;30716;41.740;-70.400;2023-04-03T01:24:33;24.70;36.20
44982;DHT22;30716;41.740;-70.400;2023-04-03T01:27:06;24.70;36.30
44982;DHT22;30716;41.740;-70.400;2023-04-03T01:29:34;24.70;36.40
44982;DHT22;30716;41.740;-70.400;2023-04-03T01:32:01;24.80;36.30
44982;DHT22;30716;41.740;-70.400;2023-04-03T01:34:30;24.80;36.30
44982;DHT22;30716;41.740;-70.400;2023-04-03T01:36:56;24.80;36.40
44982;DHT22;30716;41.740;-70.400;2023-04-03T01:39:23;24.80;36.50
44982;DHT22;30716;41.740;-70.400;2023-04-03T01:41:50;24.80;36.30
44982;DHT22;30716;41.740;-70.400;2023-04-03T01:44:16;24.80;36.30
44982;DHT22;30716;41.740;-70.400;2023-04-03T01:46:42;24.80;36.40
44982;DHT22;30716;41.740;-70.400;2023-04-03T01:49:09;24.80;36.40
44982;DHT22;30716;41.740;-70.400;2023-04-03T01:51:36;24.80;36.30
44982;DHT22;30716;41.740;-70.400;2023-04-03T01:54:03;24.80;36.30
44982;DHT22;30716;41.740;-70.400;2023-04-03T01:56:30;24.80;36.30
44982;DHT22;30716;41.740;-70.400;2023-04-03T01:58:56;24.80;36.30
44982;DHT22;30716;41.740;-70.400;2023-04-03T02:01:22;24.80;36.20
44982;DHT22;30716;41.740;-70.400;2023-04-03T02:03:49;24.80;36.20
44982;DHT22;30716;41.740;-70.400;2023-04-03T02:06:15;24.80;36.20
44982;DHT22;30716;41.740;-70.400;2023-04-03T02:08:42;24.80;36.20
44982;DHT22;30716;41.740;-70.400;2023-04-03T02:11:08;24.80;36.10
44982;DHT22;30716;41.740;-70.400;2023-04-03T02:13:35;24.80;36.20
44982;DHT22;30716;41.740;-70.400;2023-04-03T02:16:11;24.90;36.20
44982;DHT22;30716;41.740;-70.400;2023-04-03T02:18:39;24.90;36.10
44982;DHT22;30716;41.740;-70.400;2023-04-03T02:21:05;24.80;36.00
44982;DHT22;30716;41.740;-70.400;2023-04-03T02:23:32;24.80;36.00
44982;DHT22;30716;41.740;-70.400;2023-04-03T02:26:06;24.80;35.90
44982;DHT22;30716;41.740;-70.400;2023-04-03T02:28:34;24.80;35.90
44982;DHT22;30716;41.740;-70.400;2023-04-03T02:31:00;24.90;36.00
44982;DHT22;30716;41.740;-70.400;2023-04-03T02:33:27;24.90;35.90
44982;DHT22;30716;41.740;-70.400;2023-04-03T02:35:55;24.90;35.90
44982;DHT22;30716;41.740;-70.400;2023-04-03T02:38:22;24.90;35.90
44982;DHT22;30716;41.740;-70.400;2023-04-03T02:40:49;24.90;35.90
44982;DHT22;30716;41.740;-70.400;2023-04-03T02:43:15;24.90;35.90
44982;DHT22;30716;41.740;-70.400;2023-04-03T02:45:42;24.90;36.00
44982;DHT22;30716;41.740;-70.400;2023-04-03T02:48:08;24.90;35.90
44982;DHT22;30716;41.740;-70.400;2023-04-03T02:50:34;24.90;36.30
44982;DHT22;30716;41.740;-70.400;2023-04-03T02:53:00;24.90;36.00
44982;DHT22;30716;41.740;-70.400;2023-04-03T02:55:27;24.90;36.10
44982;DHT22;30716;41.740;-70.400;2023-04-03T02:57:53;24.90;36.10
44982;DHT22;30716;41.740;-70.400;2023-04-03T03:00:20;24.90;36.20
44982;DHT22;30716;41.740;-70.400;2023-04-03T03:02:46;24.90;36.20
44982;DHT22;30716;41.740;-70.400;2023-04-03T03:05:12;24.90;36.20
44982;DHT22;30716;41.740;-70.400;2023-04-03T03:07:39;25.00;36.20
44982;DHT22;30716;41.740;-70.400;2023-04-03T03:10:05;25.00;36.20
44982;DHT22;30716;41.740;-70.400;2023-04-03T03:12:32;25.00;36.10
44982;DHT22;30716;41.740;-70.400;2023-04-03T03:14:58;25.00;36.50
44982;DHT22;30716;41.740;-70.400;2023-04-03T03:17:24;25.00;36.10
44982;DHT22;30716;41.740;-70.400;2023-04-03T03:19:50;25.00;36.00
44982;DHT22;30716;41.740;-70.400;2023-04-03T03:22:17;25.00;36.10
44982;DHT22;30716;41.740;-70.400;2023-04-03T03:24:43;25.00;36.10
44982;DHT22;30716;41.740;-70.400;2023-04-03T03:27:10;25.00;36.00
44982;DHT22;30716;41.740;-70.400;2023-04-03T03:29:36;25.00;36.00
44982;DHT22;30716;41.740;-70.400;2023-04-03T03:32:02;25.00;36.00
44982;DHT22;30716;41.740;-70.400;2023-04-03T03:34:28;25.00;35.90
44982;DHT22;30716;41.740;-70.400;2023-04-03T03:36:55;25.00;36.10
44982;DHT22;30716;41.740;-70.400;2023-04-03T03:39:21;24.90;36.10
44982;DHT22;30716;41.740;-70.400;2023-04-03T03:41:48;25.00;36.00
44982;DHT22;30716;41.740;-70.400;2023-04-03T03:44:15;24.90;36.00
44982;DHT22;30716;41.740;-70.400;2023-04-03T03:46:41;24.90;36.20
44982;DHT22;30716;41.740;-70.400;2023-04-03T03:49:08;24.90;36.20
44982;DHT22;30716;41.740;-70.400;2023-04-03T03:51:34;24.90;36.00
44982;DHT22;30716;41.740;-70.400;2023-04-03T03:54:01;24.90;35.80
44982;DHT22;30716;41.740;-70.400;2023-04-03T03:56:27;24.90;36.00
44982;DHT22;30716;41.740;-70.400;2023-04-03T03:58:53;24.90;35.80
44982;DHT22;30716;41.740;-70.400;2023-04-03T04:01:24;24.90;36.00
44982;DHT22;30716;41.740;-70.400;2023-04-03T04:03:51;24.90;36.00
44982;DHT22;30716;41.740;-70.400;2023-04-03T04:06:19;24.90;36.00
44982;DHT22;30716;41.740;-70.400;2023-04-03T04:08:46;24.80;35.90
44982;DHT22;30716;41.740;-70.400;2023-04-03T04:11:13;24.80;35.90
44982;DHT22;30716;41.740;-70.400;2023-04-03T04:13:39;24.80;35.80
44982;DHT22;30716;41.740;-70.400;2023-04-03T04:16:07;24.90;35.90
44982;DHT22;30716;41.740;-70.400;2023-04-03T04:18:33;24.90;36.00
44982;DHT22;30716;41.740;-70.400;2023-04-03T04:21:00;24.90;35.80
44982;DHT22;30716;41.740;-70.400;2023-04-03T04:23:26;24.90;35.90
44982;DHT22;30716;41.740;-70.400;2023-04-03T04:25:52;24.90;35.90
44982;DHT22;30716;41.740;-70.400;2023-04-03T04:28:18;24.90;35.80
44982;DHT22;30716;41.740;-70.400;2023-04-03T04:30:45;24.90;35.80
44982;DHT22;30716;41.740;-70.400;2023-04-03T04:33:11;24.90;35.90
44982;DHT22;30716;41.740;-70.400;2023-04-03T04:35:37;24.90;35.80
44982;DHT22;30716;41.740;-70.400;2023-04-03T04:38:04;24.90;35.90
44982;DHT22;30716;41.740;-70.400;2023-04-03T04:40:30;24.90;35.90
44982;DHT22;30716;41.740;-70.400;2023-04-03T04:42:56;24.90;35.90
44982;DHT22;30716;41.740;-70.400;2023-04-03T04:45:23;24.90;35.90
44982;DHT22;30716;41.740;-70.400;2023-04-03T04:47:49;24.90;35.70
44982;DHT22;30716;41.740;-70.400;2023-04-03T04:50:17;24.90;35.80
44982;DHT22;30716;41.740;-70.400;2023-04-03T04:52:43;24.90;35.70
44982;DHT22;30716;41.740;-70.400;2023-04-03T04:55:09;24.90;35.70
44982;DHT22;30716;41.740;-70.400;2023-04-03T04:57:36;24.90;35.70
44982;DHT22;30716;41.740;-70.400;2023-04-03T05:00:05;24.90;35.80
44982;DHT22;30716;41.740;-70.400;2023-04-03T05:02:31;24.90;35.70
44982;DHT22;30716;41.740;-70.400;2023-04-03T05:04:57;24.90;35.70
44982;DHT22;30716;41.740;-70.400;2023-04-03T05:07:24;24.90;35.70
44982;DHT22;30716;41.740;-70.400;2023-04-03T05:09:50;24.90;35.70
44982;DHT22;30716;41.740;-70.400;2023-04-03T05:12:17;24.90;35.60
44982;DHT22;30716;41.740;-70.400;2023-04-03T05:14:43;24.90;35.70
44982;DHT22;30716;41.740;-70.400;2023-04-03T05:17:13;24.90;35.50
44982;DHT22;30716;41.740;-70.400;2023-04-03T05:19:39;24.90;35.50
44982;DHT22;30716;41.740;-70.400;2023-04-03T05:22:06;24.90;35.70
44982;DHT22;30716;41.740;-70.400;2023-04-03T05:24:32;24.90;35.50
44982;DHT22;30716;41.740;-70.400;2023-04-03T05:26:59;24.90;35.50
44982;DHT22;30716;41.740;-70.400;2023-04-03T05:29:25;24.90;35.50
44982;DHT22;30716;41.740;-70.400;2023-04-03T05:31:51;24.90;35.50
44982;DHT22;30716;41.740;-70.400;2023-04-03T05:34:18;24.90;35.40
44982;DHT22;30716;41.740;-70.400;2023-04-03T05:36:44;24.90;35.50
44982;DHT22;30716;41.740;-70.400;2023-04-03T05:39:11;24.90;35.40
44982;DHT22;30716;41.740;-70.400;2023-04-03T05:41:37;24.90;35.50
44982;DHT22;30716;41.740;-70.400;2023-04-03T05:44:03;24.90;35.50
44982;DHT22;30716;41.740;-70.400;2023-04-03T05:46:30;24.90;35.60
44982;DHT22;30716;41.740;-70.400;2023-04-03T05:48:56;24.90;36.40
44982;DHT22;30716;41.740;-70.400;2023-04-03T05:51:25;24.90;35.70
44982;DHT22;30716;41.740;-70.400;2023-04-03T05:54:23;24.90;35.70
44982;DHT22;30716;41.740;-70.400;2023-04-03T05:56:49;24.90;35.70
44982;DHT22;30716;41.740;-70.400;2023-04-03T05:59:16;24.90;35.90
44982;DHT22;30716;41.740;-70.400;2023-04-03T06:01:43;24.90;35.80
44982;DHT22;30716;41.740;-70.400;2023-04-03T06:04:10;24.90;35.80
44982;DHT22;30716;41.740;-70.400;2023-04-03T06:06:48;24.90;35.70
44982;DHT22;30716;41.740;-70.400;2023-04-03T06:09:16;25.00;35.70
44982;DHT22;30716;41.740;-70.400;2023-04-03T06:11:42;25.00;35.60
44982;DHT22;30716;41.740;-70.400;2023-04-03T06:14:09;25.00;35.70
44982;DHT22;30716;41.740;-70.400;2023-04-03T06:16:35;25.00;35.60
44982;DHT22;30716;41.740;-70.400;2023-04-03T06:19:02;25.00;35.60
44982;DHT22;30716;41.740;-70.400;2023-04-03T06:21:28;25.00;35.60
44982;DHT22;30716;41.740;-70.400;2023-04-03T06:23:55;25.00;35.60
44982;DHT22;30716;41.740;-70.400;2023-04-03T06:26:21;24.90;35.50
44982;DHT22;30716;41.740;-70.400;2023-04-03T06:28:48;25.00;35.60
44982;DHT22;30716;41.740;-70.400;2023-04-03T06:31:14;25.00;35.60
44982;DHT22;30716;41.740;-70.400;2023-04-03T06:33:41;24.90;35.50
44982;DHT22;30716;41.740;-70.400;2023-04-03T06:36:09;24.90;35.50
44982;DHT22;30716;41.740;-70.400;2023-04-03T06:38:36;24.90;35.70
44982;DHT22;30716;41.740;-70.400;2023-04-03T06:41:02;24.90;35.50
44982;DHT22;30716;41.740;-70.400;2023-04-03T06:43:28;24.90;35.70
44982;DHT22;30716;41.740;-70.400;2023-04-03T06:45:57;24.90;35.70
44982;DHT22;30716;41.740;-70.400;2023-04-03T06:48:23;24.90;35.70
44982;DHT22;30716;41.740;-70.400;2023-04-03T06:50:49;24.80;35.60
44982;DHT22;30716;41.740;-70.400;2023-04-03T06:53:15;24.80;35.50
44982;DHT22;30716;41.740;-70.400;2023-04-03T06:55:42;24.80;35.60
44982;DHT22;30716;41.740;-70.400;2023-04-03T06:58:08;24.90;35.50
44982;DHT22;30716;41.740;-70.400;2023-04-03T07:00:35;24.80;35.60
44982;DHT22;30716;41.740;-70.400;2023-04-03T07:03:01;24.80;36.00
44982;DHT22;30716;41.740;-70.400;2023-04-03T07:05:28;24.80;35.60
44982;DHT22;30716;41.740;-70.400;2023-04-03T07:07:54;24.80;35.60
44982;DHT22;30716;41.740;-70.400;2023-04-03T07:10:23;24.90;35.60
44982;DHT22;30716;41.740;-70.400;2023-04-03T07:12:49;24.80;35.60
44982;DHT22;30716;41.740;-70.400;2023-04-03T07:15:15;24.80;35.60
44982;DHT22;30716;41.740;-70.400;2023-04-03T07:17:42;24.80;35.70
44982;DHT22;30716;41.740;-70.400;2023-04-03T07:20:08;24.80;35.60
44982;DHT22;30716;41.740;-70.400;2023-04-03T07:22:35;24.80;35.70
44982;DHT22;30716;41.740;-70.400;2023-04-03T07:25:01;24.80;35.60
44982;DHT22;30716;41.740;-70.400;2023-04-03T07:27:28;24.80;35.60
44982;DHT22;30716;41.740;-70.400;2023-04-03T07:29:54;24.80;35.70
44982;DHT22;30716;41.740;-70.400;2023-04-03T07:32:22;24.80;35.60
44982;DHT22;30716;41.740;-70.400;2023-04-03T07:34:48;24.80;35.60
44982;DHT22;30716;41.740;-70.400;2023-04-03T07:37:21;24.80;35.50
44982;DHT22;30716;41.740;-70.400;2023-04-03T07:39:48;24.80;35.60
44982;DHT22;30716;41.740;-70.400;2023-04-03T07:42:14;24.80;36.40
44982;DHT22;30716;41.740;-70.400;2023-04-03T07:44:40;24.90;35.70
44982;DHT22;30716;41.740;-70.400;2023-04-03T07:47:07;24.80;35.70
44982;DHT22;30716;41.740;-70.400;2023-04-03T07:49:33;24.80;35.70
44982;DHT22;30716;41.740;-70.400;2023-04-03T07:52:03;24.80;35.60
44982;DHT22;30716;41.740;-70.400;2023-04-03T07:54:30;24.80;36.40
44982;DHT22;30716;41.740;-70.400;2023-04-03T07:56:56;24.80;35.70
44982;DHT22;30716;41.740;-70.400;2023-04-03T07:59:22;24.80;35.60
44982;DHT22;30716;41.740;-70.400;2023-04-03T08:01:49;24.80;35.60
44982;DHT22;30716;41.740;-70.400;2023-04-03T08:04:15;24.80;35.60
44982;DHT22;30716;41.740;-70.400;2023-04-03T08:06:41;24.80;35.60
44982;DHT22;30716;41.740;-70.400;2023-04-03T08:09:07;24.80;35.60
44982;DHT22;30716;41.740;-70.400;2023-04-03T08:11:34;24.80;35.70
44982;DHT22;30716;41.740;-70.400;2023-04-03T08:14:02;24.80;35.70
44982;DHT22;30716;41.740;-70.400;2023-04-03T08:16:28;24.80;35.70
44982;DHT22;30716;41.740;-70.400;2023-04-03T08:18:55;24.80;35.70
44982;DHT22;30716;41.740;-70.400;2023-04-03T08:21:21;24.80;35.70
44982;DHT22;30716;41.740;-70.400;2023-04-03T08:23:49;24.80;35.80
44982;DHT22;30716;41.740;-70.400;2023-04-03T08:26:18;24.80;35.70
44982;DHT22;30716;41.740;-70.400;2023-04-03T08:28:45;24.80;35.90
44982;DHT22;30716;41.740;-70.400;2023-04-03T08:31:14;24.80;35.90
44982;DHT22;30716;41.740;-70.400;2023-04-03T08:33:41;24.80;35.90
44982;DHT22;30716;41.740;-70.400;2023-04-03T08:36:17;24.80;35.90
44982;DHT22;30716;41.740;-70.400;2023-04-03T08:38:44;24.80;35.80
44982;DHT22;30716;41.740;-70.400;2023-04-03T08:46:31;24.90;35.90
44982;DHT22;30716;41.740;-70.400;2023-04-03T08:48:59;24.90;35.80
44982;DHT22;30716;41.740;-70.400;2023-04-03T08:51:26;24.90;35.80
44982;DHT22;30716;41.740;-70.400;2023-04-03T08:54:05;24.90;35.70
44982;DHT22;30716;41.740;-70.400;2023-04-03T08:56:35;25.00;35.80
44982;DHT22;30716;41.740;-70.400;2023-04-03T08:59:10;25.00;35.90
44982;DHT22;30716;41.740;-70.400;2023-04-03T09:01:41;24.90;35.80
44982;DHT22;30716;41.740;-70.400;2023-04-03T09:04:13;25.00;35.90
44982;DHT22;30716;41.740;-70.400;2023-04-03T09:06:42;25.00;35.90
44982;DHT22;30716;41.740;-70.400;2023-04-03T09:09:32;25.00;35.80
44982;DHT22;30716;41.740;-70.400;2023-04-03T09:12:33;24.90;35.80
44982;DHT22;30716;41.740;-70.400;2023-04-03T09:15:18;24.90;36.00
44982;DHT22;30716;41.740;-70.400;2023-04-03T09:20:42;24.90;36.20
44982;DHT22;30716;41.740;-70.400;2023-04-03T09:23:50;24.90;36.10
44982;DHT22;30716;41.740;-70.400;2023-04-03T09:26:36;24.90;36.20
44982;DHT22;30716;41.740;-70.400;2023-04-03T09:29:06;24.90;36.00
44982;DHT22;30716;41.740;-70.400;2023-04-03T09:31:39;24.90;36.10
44982;DHT22;30716;41.740;-70.400;2023-04-03T09:36:47;24.90;36.10
44982;DHT22;30716;41.740;-70.400;2023-04-03T09:39:19;24.90;35.90
44982;DHT22;30716;41.740;-70.400;2023-04-03T09:41:58;24.90;35.90
44982;DHT22;30716;41.740;-70.400;2023-04-03T09:44:34;24.90;35.90
44982;DHT22;30716;41.740;-70.400;2023-04-03T09:47:32;24.90;36.10
44982;DHT22;30716;41.740;-70.400;2023-04-03T09:50:21;24.90;36.10
44982;DHT22;30716;41.740;-70.400;2023-04-03T09:52:51;24.80;36.00
44982;DHT22;30716;41.740;-70.400;2023-04-03T09:55:27;24.90;36.00
44982;DHT22;30716;41.740;-70.400;2023-04-03T09:58:23;24.90;35.90
44982;DHT22;30716;41.740;-70.400;2023-04-03T10:01:01;24.90;35.90
44982;DHT22;30716;41.740;-70.400;2023-04-03T10:03:36;24.90;35.90
44982;DHT22;30716;41.740;-70.400;2023-04-03T10:06:04;24.90;35.90
44982;DHT22;30716;41.740;-70.400;2023-04-03T10:09:02;24.90;35.80
44982;DHT22;30716;41.740;-70.400;2023-04-03T10:11:30;24.90;35.90
44982;DHT22;30716;41.740;-70.400;2023-04-03T10:14:00;24.90;35.80
44982;DHT22;30716;41.740;-70.400;2023-04-03T10:16:32;25.00;35.90
44982;DHT22;30716;41.740;-70.400;2023-04-03T10:27:32;25.00;36.10
44982;DHT22;30716;41.740;-70.400;2023-04-03T10:41:10;25.00;35.80
44982;DHT22;30716;41.740;-70.400;2023-04-03T10:44:02;25.00;35.70
44982;DHT22;30716;41.740;-70.400;2023-04-03T10:49:53;25.00;36.00
44982;DHT22;30716;41.740;-70.400;2023-04-03T10:55:31;25.00;36.40
44982;DHT22;30716;41.740;-70.400;2023-04-03T10:58:00;25.00;35.90
44982;DHT22;30716;41.740;-70.400;2023-04-03T11:00:35;25.00;35.90
44982;DHT22;30716;41.740;-70.400;2023-04-03T11:05:53;25.10;36.00
44982;DHT22;30716;41.740;-70.400;2023-04-03T11:08:35;25.00;36.00
44982;DHT22;30716;41.740;-70.400;2023-04-03T11:11:11;25.00;36.10
44982;DHT22;30716;41.740;-70.400;2023-04-03T11:13:44;25.00;35.80
44982;DHT22;30716;41.740;-70.400;2023-04-03T11:16:29;25.00;36.00
44982;DHT22;30716;41.740;-70.400;2023-04-03T11:19:26;25.10;35.90
44982;DHT22;30716;41.740;-70.400;2023-04-03T11:25:25;25.10;35.80
44982;DHT22;30716;41.740;-70.400;2023-04-03T11:28:01;25.10;35.70
44982;DHT22;30716;41.740;-70.400;2023-04-03T11:36:25;25.10;35.80
44982;DHT22;30716;41.740;-70.400;2023-04-03T11:38:55;25.10;35.80
44982;DHT22;30716;41.740;-70.400;2023-04-03T11:41:29;25.10;35.70
44982;DHT22;30716;41.740;-70.400;2023-04-03T11:44:00;25.10;35.70
44982;DHT22;30716;41.740;-70.400;2023-04-03T11:46:50;25.10;35.70
44982;DHT22;30716;41.740;-70.400;2023-04-03T11:49:52;25.10;36.00
44982;DHT22;30716;41.740;-70.400;2023-04-03T12:00:56;25.00;35.90
44982;DHT22;30716;41.740;-70.400;2023-04-03T12:08:52;25.00;36.00
44982;DHT22;30716;41.740;-70.400;2023-04-03T12:11:29;25.00;35.90
44982;DHT22;30716;41.740;-70.400;2023-04-03T12:24:29;25.00;36.10
44982;DHT22;30716;41.740;-70.400;2023-04-03T12:27:09;24.90;36.00
44982;DHT22;30716;41.740;-70.400;2023-04-03T12:32:51;24.90;35.90
44982;DHT22;30716;41.740;-70.400;2023-04-03T12:35:58;24.90;35.90
44982;DHT22;30716;41.740;-70.400;2023-04-03T12:42:03;24.90;35.80
44982;DHT22;30716;41.740;-70.400;2023-04-03T12:44:40;24.90;36.00
44982;DHT22;30716;41.740;-70.400;2023-04-03T12:47:29;24.90;35.90
44982;DHT22;30716;41.740;-70.400;2023-04-03T12:49:59;24.90;35.90
44982;DHT22;30716;41.740;-70.400;2023-04-03T12:54:53;24.90;36.00
44982;DHT22;30716;41.740;-70.400;2023-04-03T12:57:25;24.90;36.10
44982;DHT22;30716;41.740;-70.400;2023-04-03T12:59:52;24.90;36.10
44982;DHT22;30716;41.740;-70.400;2023-04-03T13:02:34;24.90;36.10
44982;DHT22;30716;41.740;-70.400;2023-04-03T13:05:07;24.80;36.10
44982;DHT22;30716;41.740;-70.400;2023-04-03T13:07:35;24.80;36.10
44982;DHT22;30716;41.740;-70.400;2023-04-03T13:12:51;24.80;36.20
44982;DHT22;30716;41.740;-70.400;2023-04-03T13:15:30;24.80;36.30
44982;DHT22;30716;41.740;-70.400;2023-04-03T13:17:57;24.80;36.30
44982;DHT22;30716;41.740;-70.400;2023-04-03T13:20:32;24.80;36.40
44982;DHT22;30716;41.740;-70.400;2023-04-03T13:23:00;24.80;36.50
44982;DHT22;30716;41.740;-70.400;2023-04-03T13:25:32;24.80;36.50
44982;DHT22;30716;41.740;-70.400;2023-04-03T13:28:01;24.80;36.80
44982;DHT22;30716;41.740;-70.400;2023-04-03T13:30:37;24.70;36.70
44982;DHT22;30716;41.740;-70.400;2023-04-03T13:33:06;24.70;36.10
44982;DHT22;30716;41.740;-70.400;2023-04-03T13:35:44;24.70;36.70
44982;DHT22;30716;41.740;-70.400;2023-04-03T13:38:21;24.70;36.70
44982;DHT22;30716;41.740;-70.400;2023-04-03T13:41:03;24.70;36.70
44982;DHT22;30716;41.740;-70.400;2023-04-03T13:43:34;24.70;36.70
44982;DHT22;30716;41.740;-70.400;2023-04-03T13:46:19;24.70;36.80
44982;DHT22;30716;41.740;-70.400;2023-04-03T13:48:51;24.70;36.70
44982;DHT22;30716;41.740;-70.400;2023-04-03T13:54:00;24.70;36.70
44982;DHT22;30716;41.740;-70.400;2023-04-03T13:56:38;24.70;36.80
44982;DHT22;30716;41.740;-70.400;2023-04-03T14:01:50;24.60;36.70
44982;DHT22;30716;41.740;-70.400;2023-04-03T14:04:21;24.60;37.00
44982;DHT22;30716;41.740;-70.400;2023-04-03T14:06:49;24.60;36.90
44982;DHT22;30716;41.740;-70.400;2023-04-03T14:09:17;24.60;36.90
44982;DHT22;30716;41.740;-70.400;2023-04-03T14:11:44;24.60;36.90
44982;DHT22;30716;41.740;-70.400;2023-04-03T14:14:18;24.60;36.90
44982;DHT22;30716;41.740;-70.400;2023-04-03T14:16:50;24.60;37.00
44982;DHT22;30716;41.740;-70.400;2023-04-03T14:19:29;24.60;36.80
44982;DHT22;30716;41.740;-70.400;2023-04-03T14:21:57;24.60;36.80
44982;DHT22;30716;41.740;-70.400;2023-04-03T14:24:23;24.60;36.90
44982;DHT22;30716;41.740;-70.400;2023-04-03T14:26:52;24.60;36.90
44982;DHT22;30716;41.740;-70.400;2023-04-03T14:29:20;24.60;36.80
44982;DHT22;30716;41.740;-70.400;2023-04-03T14:31:48;24.60;36.70
44982;DHT22;30716;41.740;-70.400;2023-04-03T14:34:15;24.60;36.70
44982;DHT22;30716;41.740;-70.400;2023-04-03T14:36:44;24.60;37.00
44982;DHT22;30716;41.740;-70.400;2023-04-03T14:39:18;24.60;36.80
44982;DHT22;30716;41.740;-70.400;2023-04-03T14:41:45;24.60;36.80
44982;DHT22;30716;41.740;-70.400;2023-04-03T14:44:11;24.50;37.00
44982;DHT22;30716;41.740;-70.400;2023-04-03T14:46:41;24.50;36.90
44982;DHT22;30716;41.740;-70.400;2023-04-03T14:49:15;24.60;37.00
44982;DHT22;30716;41.740;-70.400;2023-04-03T14:51:44;24.50;36.90
44982;DHT22;30716;41.740;-70.400;2023-04-03T14:54:17;24.50;37.00
44982;DHT22;30716;41.740;-70.400;2023-04-03T14:56:44;24.50;37.00
44982;DHT22;30716;41.740;-70.400;2023-04-03T14:59:12;24.50;37.00
44982;DHT22;30716;41.740;-70.400;2023-04-03T15:01:40;24.50;37.10
44982;DHT22;30716;41.740;-70.400;2023-04-03T15:04:18;24.50;37.20
44982;DHT22;30716;41.740;-70.400;2023-04-03T15:06:46;24.50;37.20
44982;DHT22;30716;41.740;-70.400;2023-04-03T15:09:21;24.50;37.20
44982;DHT22;30716;41.740;-70.400;2023-04-03T15:11:49;24.40;37.10
44982;DHT22;30716;41.740;-70.400;2023-04-03T15:14:15;24.40;37.80
44982;DHT22;30716;41.740;-70.400;2023-04-03T15:16:42;24.50;37.30
44982;DHT22;30716;41.740;-70.400;2023-04-03T15:19:09;24.40;37.30
44982;DHT22;30716;41.740;-70.400;2023-04-03T15:21:38;24.40;37.50
44982;DHT22;30716;41.740;-70.400;2023-04-03T15:24:04;24.40;37.50
44982;DHT22;30716;41.740;-70.400;2023-04-03T15:26:32;24.50;37.50
44982;DHT22;30716;41.740;-70.400;2023-04-03T15:28:58;24.50;36.90
44982;DHT22;30716;41.740;-70.400;2023-04-03T15:31:25;24.40;37.60
44982;DHT22;30716;41.740;-70.400;2023-04-03T15:33:51;24.40;37.50
44982;DHT22;30716;41.740;-70.400;2023-04-03T15:36:17;24.40;37.60
44982;DHT22;30716;41.740;-70.400;2023-04-03T15:38:44;24.40;37.40
44982;DHT22;30716;41.740;-70.400;2023-04-03T15:41:10;24.40;37.30
44982;DHT22;30716;41.740;-70.400;2023-04-03T15:43:36;24.40;37.50
44982;DHT22;30716;41.740;-70.400;2023-04-03T15:46:03;24.40;37.50
44982;DHT22;30716;41.740;-70.400;2023-04-03T15:48:30;24.40;37.50
44982;DHT22;30716;41.740;-70.400;2023-04-03T15:50:56;24.40;37.50
44982;DHT22;30716;41.740;-70.400;2023-04-03T15:53:22;24.40;37.60
44982;DHT22;30716;41.740;-70.400;2023-04-03T15:55:49;24.40;37.50
44982;DHT22;30716;41.740;-70.400;2023-04-03T15:58:15;24.40;37.60
44982;DHT22;30716;41.740;-70.400;2023-04-03T16:00:42;24.40;37.50
44982;DHT22;30716;41.740;-70.400;2023-04-03T16:03:11;24.40;37.60
44982;DHT22;30716;41.740;-70.400;2023-04-03T16:05:39;24.40;37.60
44982;DHT22;30716;41.740;-70.400;2023-04-03T16:08:07;24.40;37.50
44982;DHT22;30716;41.740;-70.400;2023-04-03T16:10:35;24.40;37.50
44982;DHT22;30716;41.740;-70.400;2023-04-03T16:13:02;24.40;37.40
44982;DHT22;30716;41.740;-70.400;2023-04-03T16:15:30;24.40;37.30
44982;DHT22;30716;41.740;-70.400;2023-04-03T16:17:57;24.40;37.50
44982;DHT22;30716;41.740;-70.400;2023-04-03T16:20:25;24.40;37.40
44982;DHT22;30716;41.740;-70.400;2023-04-03T16:22:51;24.40;37.50
44982;DHT22;30716;41.740;-70.400;2023-04-03T16:25:18;24.40;37.60
44982;DHT22;30716;41.740;-70.400;2023-04-03T16:27:44;24.40;37.60
44982;DHT22;30716;41.740;-70.400;2023-04-03T16:30:11;24.40;37.50
44982;DHT22;30716;41.740;-70.400;2023-04-03T16:32:39;24.40;37.60
44982;DHT22;30716;41.740;-70.400;2023-04-03T16:35:06;24.40;37.70
44982;DHT22;30716;41.740;-70.400;2023-04-03T16:37:33;24.30;37.60
44982;DHT22;30716;41.740;-70.400;2023-04-03T16:39:59;24.40;37.50
44982;DHT22;30716;41.740;-70.400;2023-04-03T16:42:25;24.30;37.60
44982;DHT22;30716;41.740;-70.400;2023-04-03T16:44:52;24.40;37.60
44982;DHT22;30716;41.740;-70.400;2023-04-03T16:47:18;24.30;37.60
44982;DHT22;30716;41.740;-70.400;2023-04-03T16:49:46;24.40;37.80
44982;DHT22;30716;41.740;-70.400;2023-04-03T16:52:15;24.30;37.70